Sault Ste Marie, MI

4:17 AM EST on January 21, 2017 (GMT -0500)
Sault Ste Marie | | Change Station
Active Advisory: Dense Fog Advisory

Elev 715 ft 46.48 °N, 84.37 °W | Updated 22 minutes ago

Fog
Fog
33 °F
Feels Like 29 °F
N
5
Wind Variable Wind from East

Today
High -- | Low -- °F
--% Chance of Precip.
Yesterday
High -- | Low -- °F
Precip. -- in
Pressure 29.72 in
Visibility 0.5 miles
Clouds
Windchill 29 °F
Dew Point 32 °F
Humidity 96%
Rainfall 0.07 in
Snow Depth Not available.
8:12 AM 5:25 PM
Last Quarter, 36% visible
METAR KANJ 210855Z AUTO 10004KT 1/2SM FG VV002 01/00 A2970 RMK AO2 SLP064 60001 T00060000 58005
Pressure 29.72 in
Visibility 0.5 miles
Clouds
Windchill 29 °F
Dew Point 32 °F
Humidity 96%
Rainfall 0.07 in
Snow Depth Not available.
8:12 AM 5:25 PM
Last Quarter, 36% visible
METAR KANJ 210855Z AUTO 10004KT 1/2SM FG VV002 01/00 A2970 RMK AO2 SLP064 60001 T00060000 58005

Get Your Daily Forecast Email!

Thanks for signing up!

Be on the lookout for a verification email in your inbox.

You'll start receiving the daily forecast at 8 AM.

×

10-Day Weather Forecast

Almanac

Astronomy

Jan. 21, 2017 Rise Set
Actual Time
Civil Twilight
Nautical Twilight
Astronomical Twilight
Moon
Length of Visible Light
Length of Day
Tomorrow will be .
, % of the Moon is Illuminated

Today's Extremes

State Highs State Lows

Community

WunderPhotos

Upload Photos

1,962,540 photos uploaded!

WunderBlog® & News

Nearby

Air Quality

  Air Quality AQ Index Pollutant
Not available.

Snow Depth

Station Depth Elevation

Earthquake Activity

City Distance Mag. Time & Date
Minimum magnitude displayed is 2.5.

Coastal Water Temperatures

Place Temperature

Stations

Nearby Weather Stations

Station Location Temp. Windchill Dew Point Humidity Wind Precip. Elev Updated Type
                   

Watches & Warnings

Dense Fog Advisory
Issued: 3:52 AM EST Jan. 21, 2017 – National Weather Service

... Dense fog advisory remains in effect until noon EST today...

* visibility... fog has lifted to a degree early this morning.
However... additional dense fog with visibilities of one quarter
of a mile or less is expected to develop through morning.

* Impacts... low visibilities will lead to difficult driving
conditions. Also... temperatures around freezing into daybreak
may allow for light icing on untreated surfaces.

Precautionary/preparedness actions...

A dense fog advisory means visibilities will frequently be
reduced to less than one quarter mile. If driving... slow down...
use your headlights... and leave plenty of distance ahead of you.



Smd